Zim Qingdao — A8IZ2 — position and weather

sailwx.info

Track history (hours):
 
Tides and Currents Weather Stations Pressure Air Temp Water Temp Dewpoint Dewpoint Depression Visibility Wind Speed Wind Dir Waves Ship Positions

Zim Qingdao

Last reported at 2015-Jan-28 13:24 UTC. Time now 2015-Jan-28 18:13 UTC.
Position N 42°03' E 005°07'.

Length 260.61 m; beam 32.25 m; draft 12.6 m.

Type: Cargo ship. MMSI: 636012904.

Date/timePositionNaut miles runAvg speedWind from/ knotsBaromVisibWave heightAir tempDewpointWater temp
2015-Jan-28 13:24N 42°03' E 005°07'1617.1
2015-Jan-28 12:30N 41°57' E 004°47'2015.2
2015-Jan-28 11:13N 41°50' E 004°23'1716.2
2015-Jan-28 10:11N 41°44' E 004°02'1014.8
2015-Jan-28 09:31N 41°40' E 003°50'1915.0
2015-Jan-28 08:14N 41°33' E 003°26'5915.7
2015-Jan-28 04:30N 41°10' E 002°14'1515.5
2015-Jan-28 03:33N 41°06' E 001°55'56 4.3
2015-Jan-27 14:22N 40°32' E 000°57'810.1
2015-Jan-27 13:32N 40°25' E 000°51'6410.6
2015-Jan-27 07:32N 39°35' W 000°02'1010.1
2015-Jan-27 06:31N 39°27' W 000°10'7 7.0
2015-Jan-27 05:34N 39°27' W 000°19'0 0.2
2015-Jan-27 04:33N 39°27' W 000°19'0 0.0
2015-Jan-27 03:33N 39°27' W 000°19'0 0.0
2015-Jan-27 02:33N 39°27' W 000°19'0 0.0
2015-Jan-27 01:33N 39°27' W 000°19'0 0.0
2015-Jan-27 00:33N 39°27' W 000°19'0 0.0
2015-Jan-26 23:33N 39°27' W 000°19'0 0.0
2015-Jan-26 22:33N 39°27' W 000°19'0 0.0
2015-Jan-26 21:33N 39°27' W 000°19'0 0.0
2015-Jan-26 20:33N 39°27' W 000°19'0 0.0
2015-Jan-26 19:33N 39°27' W 000°19'0 0.0
2015-Jan-26 18:33N 39°27' W 000°19'1 0.5
2015-Jan-26 17:34N 39°26' W 000°19'10412.5
2015-Jan-26 09:13N 37°42' W 000°23'25616.3
2015-Jan-25 17:33N 35°59' W 005°16'18516.8
2015-Jan-25 06:34N 36°16' W 009°04'1120.2
2015-Jan-25 06:00N 36°18' W 009°18'71916.9 050 / 151028.010.8 14.0 6.0
2015-Jan-23 11:33N 38°04' W 024°11'1717.0
2015-Jan-23 10:34N 38°05' W 024°32'1717.0
2015-Jan-23 09:33N 38°06' W 024°54'1717.2
2015-Jan-23 08:34N 38°07' W 025°15'1717.4
2015-Jan-23 07:33N 38°08' W 025°37'1717.3
2015-Jan-23 06:34N 38°09' W 025°59'1717.4
2015-Jan-23 05:33N 38°09' W 026°21'1717.4
2015-Jan-23 04:33N 38°10' W 026°44'1717.3
2015-Jan-23 03:33N 38°12' W 027°06'7119.9
2015-Jan-23 00:00N 38°12' W 028°36'7115.7 140 / 101034.010.8 16.011.0
2015-Jan-22 19:29N 38°23' W 030°05'1617.2
2015-Jan-22 18:33N 38°24' W 030°25'1817.0
2015-Jan-22 17:28N 38°25' W 030°49'55515.6
2015-Jan-21 06:00N 38°18' W 042°36'41517.3 160 / 201022.0 2.2 18.016.0
2015-Jan-20 06:00N 37°30' W 051°18'40917.0 170 / 201014.010.8 18.015.0
2015-Jan-19 06:00N 36°00' W 059°36'20316.9 130 / 301020.010.8 9.0
2015-Jan-18 18:00N 35°06' W 063°36'   090 / 201027.010.8 3.015.010.0
Track history (hours):
 
Tides and Currents Weather Stations Pressure Air Temp Water Temp Dewpoint Dewpoint Depression Visibility Wind Speed Wind Dir Waves Ship Positions

Zim Qingdao

Last reported at 2015-Jan-28 13:24 UTC. Time now 2015-Jan-28 18:13 UTC.
Position N 42°03' E 005°07'.

Length 260.61 m; beam 32.25 m; draft 12.6 m.

Type: Cargo ship. MMSI: 636012904.

Date/timePositionNaut miles runAvg speedWind from/ knotsBaromVisibWave heightAir tempDewpointWater temp
2015-Jan-28 13:24N 42°03' E 005°07'1617.1
2015-Jan-28 12:30N 41°57' E 004°47'2015.2
2015-Jan-28 11:13N 41°50' E 004°23'1716.2
2015-Jan-28 10:11N 41°44' E 004°02'1014.8
2015-Jan-28 09:31N 41°40' E 003°50'1915.0
2015-Jan-28 08:14N 41°33' E 003°26'5915.7
2015-Jan-28 04:30N 41°10' E 002°14'1515.5
2015-Jan-28 03:33N 41°06' E 001°55'56 4.3
2015-Jan-27 14:22N 40°32' E 000°57'810.1
2015-Jan-27 13:32N 40°25' E 000°51'6410.6
2015-Jan-27 07:32N 39°35' W 000°02'1010.1
2015-Jan-27 06:31N 39°27' W 000°10'7 7.0
2015-Jan-27 05:34N 39°27' W 000°19'0 0.2
2015-Jan-27 04:33N 39°27' W 000°19'0 0.0
2015-Jan-27 03:33N 39°27' W 000°19'0 0.0
2015-Jan-27 02:33N 39°27' W 000°19'0 0.0
2015-Jan-27 01:33N 39°27' W 000°19'0 0.0
2015-Jan-27 00:33N 39°27' W 000°19'0 0.0
2015-Jan-26 23:33N 39°27' W 000°19'0 0.0
2015-Jan-26 22:33N 39°27' W 000°19'0 0.0
2015-Jan-26 21:33N 39°27' W 000°19'0 0.0
2015-Jan-26 20:33N 39°27' W 000°19'0 0.0
2015-Jan-26 19:33N 39°27' W 000°19'0 0.0
2015-Jan-26 18:33N 39°27' W 000°19'1 0.5
2015-Jan-26 17:34N 39°26' W 000°19'10412.5
2015-Jan-26 09:13N 37°42' W 000°23'25616.3
2015-Jan-25 17:33N 35°59' W 005°16'18516.8
2015-Jan-25 06:34N 36°16' W 009°04'1120.2
2015-Jan-25 06:00N 36°18' W 009°18'71916.9 050 / 151028.010.8 14.0 6.0
2015-Jan-23 11:33N 38°04' W 024°11'1717.0
2015-Jan-23 10:34N 38°05' W 024°32'1717.0
2015-Jan-23 09:33N 38°06' W 024°54'1717.2
2015-Jan-23 08:34N 38°07' W 025°15'1717.4
2015-Jan-23 07:33N 38°08' W 025°37'1717.3
2015-Jan-23 06:34N 38°09' W 025°59'1717.4
2015-Jan-23 05:33N 38°09' W 026°21'1717.4
2015-Jan-23 04:33N 38°10' W 026°44'1717.3
2015-Jan-23 03:33N 38°12' W 027°06'7119.9
2015-Jan-23 00:00N 38°12' W 028°36'7115.7 140 / 101034.010.8 16.011.0
2015-Jan-22 19:29N 38°23' W 030°05'1617.2
2015-Jan-22 18:33N 38°24' W 030°25'1817.0
2015-Jan-22 17:28N 38°25' W 030°49'55515.6
2015-Jan-21 06:00N 38°18' W 042°36'41517.3 160 / 201022.0 2.2 18.016.0
2015-Jan-20 06:00N 37°30' W 051°18'40917.0 170 / 201014.010.8 18.015.0
2015-Jan-19 06:00N 36°00' W 059°36'20316.9 130 / 301020.010.8 9.0
2015-Jan-18 18:00N 35°06' W 063°36'   090 / 201027.010.8 3.015.010.0

Dump ship's entire track history